createdAt,value
2022-09-23T00:00:59.755Z,66.59
2022-09-23T00:03:32.550Z,66.62
2022-09-23T00:06:10.664Z,67.02
2022-09-23T00:08:42.162Z,67.11
2022-09-23T00:11:16.370Z,67.18
2022-09-23T00:13:50.611Z,66.88
2022-09-23T00:16:25.397Z,67.51
2022-09-23T00:18:57.047Z,67.33
2022-09-23T00:21:28.586Z,67.05
2022-09-23T00:23:59.884Z,67.76
2022-09-23T00:26:31.142Z,67.17
2022-09-23T00:29:02.489Z,67.85
2022-09-23T00:31:33.774Z,67.54
2022-09-23T00:34:05.033Z,68.00
2022-09-23T00:36:36.294Z,68.25
2022-09-23T00:39:07.687Z,67.78
2022-09-23T00:41:39.445Z,68.21
2022-09-23T00:44:59.235Z,68.56
2022-09-23T00:47:44.497Z,68.09
2022-09-23T00:50:27.087Z,68.46
2022-09-23T00:53:01.884Z,68.91
2022-09-23T00:55:39.095Z,68.82
2022-09-23T00:58:14.838Z,69.03
2022-09-23T01:00:46.846Z,68.91
2022-09-23T01:03:19.606Z,69.05
2022-09-23T01:05:52.169Z,68.82
2022-09-23T01:08:24.828Z,68.70
2022-09-23T01:11:02.746Z,68.90
2022-09-23T01:13:49.842Z,69.11
2022-09-23T01:16:54.655Z,68.72
2022-09-23T01:19:56.935Z,68.74
2022-09-23T01:22:44.305Z,68.49
2022-09-23T01:25:36.709Z,68.85
2022-09-23T01:28:33.272Z,68.53
2022-09-23T01:31:10.399Z,68.80
2022-09-23T01:34:02.118Z,68.41
2022-09-23T01:36:42.782Z,68.09
2022-09-23T01:39:28.030Z,68.25
2022-09-23T01:42:25.681Z,68.51
2022-09-23T01:45:07.052Z,68.34
2022-09-23T01:47:54.926Z,68.07
2022-09-23T01:50:50.405Z,68.19
2022-09-23T01:53:28.698Z,68.19
2022-09-23T01:56:04.490Z,67.99
2022-09-23T01:59:02.191Z,67.95
2022-09-23T02:01:39.161Z,68.04
2022-09-23T02:04:17.404Z,68.41
2022-09-23T02:06:55.417Z,68.21
2022-09-23T02:09:35.229Z,68.45
2022-09-23T02:12:14.692Z,68.64
2022-09-23T02:14:53.302Z,68.09
2022-09-23T02:17:31.910Z,68.36
2022-09-23T02:20:06.976Z,68.11
2022-09-23T02:22:54.852Z,68.23
2022-09-23T02:25:39.138Z,68.14
2022-09-23T02:28:24.146Z,68.19
2022-09-23T02:31:08.163Z,68.19
2022-09-23T02:33:46.279Z,68.50
2022-09-23T02:36:46.038Z,68.75
2022-09-23T02:39:20.602Z,68.74
2022-09-23T02:42:00.742Z,68.69
2022-09-23T02:44:32.886Z,68.07
2022-09-23T02:47:04.484Z,68.60
2022-09-23T02:49:36.489Z,68.86
2022-09-23T02:52:07.933Z,68.70
2022-09-23T02:54:40.506Z,68.59
2022-09-23T02:57:11.769Z,69.04
2022-09-23T02:59:43.637Z,69.11
2022-09-23T03:02:44.708Z,69.19
2022-09-23T03:05:28.020Z,68.67
2022-09-23T03:08:18.894Z,69.21
2022-09-23T03:11:06.826Z,68.98
2022-09-23T03:13:46.813Z,68.87
2022-09-23T03:16:28.292Z,69.51
2022-09-23T03:19:17.953Z,69.68
2022-09-23T03:21:58.462Z,69.18
2022-09-23T03:24:34.536Z,69.34
2022-09-23T03:27:13.735Z,69.94
2022-09-23T03:29:48.681Z,70.04
2022-09-23T03:32:23.503Z,69.71
2022-09-23T03:34:59.930Z,69.95
2022-09-23T03:37:58.756Z,70.18
2022-09-23T03:40:35.554Z,70.11
2022-09-23T03:43:07.642Z,70.45
2022-09-23T03:45:39.977Z,70.01
2022-09-23T03:48:11.281Z,70.37
2022-09-23T03:50:42.621Z,70.69
2022-09-23T03:53:14.093Z,70.37
2022-09-23T03:55:46.521Z,70.38
2022-09-23T03:58:18.045Z,70.55
2022-09-23T04:00:49.631Z,70.78
2022-09-23T04:03:22.287Z,70.62
2022-09-23T04:05:53.649Z,70.34
2022-09-23T04:08:24.958Z,70.88
2022-09-23T04:11:01.413Z,70.44
2022-09-23T04:13:32.758Z,70.90
2022-09-23T04:16:04.222Z,70.68
2022-09-23T04:18:35.562Z,70.55
2022-09-23T04:21:06.829Z,70.63
2022-09-23T04:23:38.259Z,70.71
2022-09-23T04:26:09.888Z,71.07
2022-09-23T04:28:41.334Z,70.57
2022-09-23T04:31:12.869Z,71.13
2022-09-23T04:33:44.213Z,71.40
2022-09-23T04:36:15.559Z,71.36
2022-09-23T04:38:48.616Z,71.10
2022-09-23T04:41:21.769Z,71.47
2022-09-23T04:43:53.210Z,71.41
2022-09-23T04:46:24.758Z,71.14
2022-09-23T04:48:56.710Z,71.21
2022-09-23T04:51:28.089Z,71.00
2022-09-23T04:53:59.429Z,71.17
2022-09-23T04:56:34.047Z,71.41
2022-09-23T04:59:05.641Z,71.82
2022-09-23T05:01:38.289Z,71.73
2022-09-23T05:04:14.240Z,71.34
2022-09-23T05:06:45.618Z,71.90
2022-09-23T05:09:17.810Z,71.37
2022-09-23T05:11:49.233Z,71.71
2022-09-23T05:14:20.745Z,71.63
2022-09-23T05:16:52.169Z,71.38
2022-09-23T05:19:23.529Z,71.61
2022-09-23T05:21:55.050Z,71.32
2022-09-23T05:24:29.220Z,71.47
2022-09-23T05:27:02.041Z,71.32
2022-09-23T05:29:34.780Z,71.61
2022-09-23T05:32:06.115Z,71.54
2022-09-23T05:34:37.479Z,71.67
2022-09-23T05:37:08.962Z,71.52
2022-09-23T05:39:40.250Z,71.42
2022-09-23T05:42:12.459Z,71.48
2022-09-23T05:44:44.090Z,71.40
2022-09-23T05:47:15.466Z,71.40
2022-09-23T05:49:59.008Z,71.73
2022-09-23T05:52:31.496Z,71.47
2022-09-23T05:55:03.049Z,71.31
2022-09-23T05:57:34.294Z,71.51
2022-09-23T06:00:06.124Z,71.29
2022-09-23T06:02:37.663Z,71.53
2022-09-23T06:05:09.095Z,71.35
2022-09-23T06:07:40.457Z,71.57
2022-09-23T06:10:12.133Z,71.18
2022-09-23T06:12:44.893Z,71.38
2022-09-23T06:15:16.885Z,71.46
2022-09-23T06:17:51.309Z,71.56
2022-09-23T06:20:22.734Z,71.26
2022-09-23T06:22:55.619Z,71.37
2022-09-23T06:25:27.572Z,71.33
2022-09-23T06:27:59.165Z,71.06
2022-09-23T06:30:30.765Z,71.17
2022-09-23T06:33:02.235Z,71.13
2022-09-23T06:35:33.758Z,71.42
2022-09-23T06:38:05.130Z,71.42
2022-09-23T06:40:36.572Z,71.49
2022-09-23T06:43:08.352Z,71.13
2022-09-23T06:45:39.593Z,71.34
2022-09-23T06:48:11.442Z,71.55
2022-09-23T06:50:42.694Z,71.21
2022-09-23T06:53:14.035Z,71.27
2022-09-23T06:55:45.383Z,71.75
2022-09-23T06:58:16.726Z,71.58
2022-09-23T07:00:47.994Z,71.82
2022-09-23T07:03:19.323Z,71.52
2022-09-23T07:05:55.189Z,71.41
2022-09-23T07:08:27.730Z,71.40
2022-09-23T07:11:01.816Z,71.36
2022-09-23T07:13:33.655Z,71.23
2022-09-23T07:16:05.301Z,71.08
2022-09-23T07:18:37.543Z,70.60
2022-09-23T07:21:15.448Z,70.65
2022-09-23T07:23:50.062Z,70.55
2022-09-23T07:26:22.718Z,70.44
2022-09-23T07:29:04.468Z,70.39
2022-09-23T07:31:39.489Z,70.11
2022-09-23T07:34:11.675Z,69.84
2022-09-23T07:36:43.166Z,69.35
2022-09-23T07:39:14.529Z,69.09
2022-09-23T07:41:45.789Z,68.18
2022-09-23T07:44:19.072Z,68.06
2022-09-23T07:46:50.598Z,68.21
2022-09-23T07:49:22.166Z,67.02
2022-09-23T07:51:53.793Z,66.56
2022-09-23T07:54:29.527Z,65.88
2022-09-23T07:57:01.074Z,66.09
2022-09-23T07:59:32.450Z,65.51
2022-09-23T08:02:04.418Z,65.07
2022-09-23T08:04:36.876Z,64.49
2022-09-23T08:07:08.998Z,64.12
2022-09-23T08:09:42.111Z,64.10
2022-09-23T08:12:16.521Z,63.77
2022-09-23T08:14:47.897Z,64.17
2022-09-23T08:17:19.199Z,64.15
2022-09-23T08:19:50.509Z,63.26
2022-09-23T08:22:22.000Z,62.93
2022-09-23T08:24:55.689Z,62.82
2022-09-23T08:27:29.260Z,62.73
2022-09-23T08:30:00.603Z,62.25
2022-09-23T08:32:32.060Z,62.01
2022-09-23T08:35:03.459Z,61.90
2022-09-23T08:37:34.722Z,61.62
2022-09-23T08:40:06.566Z,61.45
2022-09-23T08:42:40.694Z,60.89
2022-09-23T08:45:20.932Z,60.41
2022-09-23T08:48:10.816Z,60.36
2022-09-23T08:50:59.805Z,60.02
2022-09-23T08:53:38.060Z,59.92
2022-09-23T08:56:18.318Z,59.57
2022-09-23T08:59:00.016Z,59.14
2022-09-23T09:01:51.771Z,58.85
2022-09-23T09:04:28.264Z,58.68
2022-09-23T09:10:23.334Z,58.52
2022-09-23T09:13:07.505Z,57.94
2022-09-23T09:15:55.119Z,57.48
2022-09-23T09:18:31.056Z,57.98
2022-09-23T09:21:09.868Z,57.56
2022-09-23T09:23:59.512Z,56.75
2022-09-23T09:26:34.857Z,56.65
2022-09-23T09:29:31.262Z,56.13
2022-09-23T09:32:22.530Z,56.00
2022-09-23T09:34:59.669Z,55.99
2022-09-23T09:37:35.798Z,55.71
2022-09-23T09:40:11.768Z,55.12
2022-09-23T09:42:46.090Z,54.68
2022-09-23T09:45:28.367Z,54.58
2022-09-23T09:48:10.786Z,53.88
2022-09-23T09:50:53.902Z,53.39
2022-09-23T09:53:35.802Z,52.96
2022-09-23T09:56:10.072Z,52.83
2022-09-23T09:58:48.840Z,52.30
2022-09-23T10:01:32.384Z,51.82
2022-09-23T10:04:06.448Z,51.80
2022-09-23T10:06:37.878Z,51.45
2022-09-23T10:09:19.131Z,50.75
2022-09-23T10:12:10.663Z,50.28
2022-09-23T10:14:42.719Z,50.14
2022-09-23T10:17:29.936Z,49.59
2022-09-23T10:20:09.233Z,49.67
2022-09-23T10:22:42.426Z,49.20
2022-09-23T10:25:20.664Z,49.01
2022-09-23T10:27:52.436Z,48.89
2022-09-23T10:30:27.776Z,48.16
2022-09-23T10:32:59.201Z,48.40
2022-09-23T10:35:34.286Z,47.84
2022-09-23T10:38:09.010Z,48.01
2022-09-23T10:41:01.751Z,47.52
2022-09-23T10:44:03.793Z,47.66
2022-09-23T10:46:41.482Z,47.87
2022-09-23T10:49:37.978Z,47.68
2022-09-23T10:52:39.324Z,47.05
2022-09-23T10:55:36.113Z,46.84
2022-09-23T10:58:27.108Z,47.89
2022-09-23T11:01:17.250Z,48.12
2022-09-23T11:03:51.289Z,47.51
2022-09-23T11:07:03.390Z,45.49
2022-09-23T11:10:03.180Z,45.57
2022-09-23T11:12:54.644Z,45.48
2022-09-23T11:15:38.970Z,45.54
2022-09-23T11:18:19.363Z,45.29
2022-09-23T11:21:20.737Z,45.16
2022-09-23T11:24:07.399Z,44.67
2022-09-23T11:26:48.091Z,44.59
2022-09-23T11:29:47.430Z,44.55
2022-09-23T11:32:39.525Z,43.75
2022-09-23T11:35:19.286Z,43.98
2022-09-23T11:38:25.873Z,44.52
2022-09-23T11:41:02.348Z,44.52
2022-09-23T11:43:39.226Z,43.63
2022-09-23T11:46:32.830Z,42.60
2022-09-23T11:49:16.141Z,42.32
2022-09-23T11:52:19.490Z,42.33
2022-09-23T11:55:00.816Z,42.40
2022-09-23T11:57:49.048Z,42.08
2022-09-23T12:00:23.711Z,42.82
2022-09-23T12:03:10.120Z,43.07
2022-09-23T12:05:47.514Z,42.82
2022-09-23T12:08:28.954Z,42.71
2022-09-23T12:11:23.169Z,42.50
2022-09-23T12:14:15.522Z,42.52
2022-09-23T12:16:55.774Z,42.38
2022-09-23T12:19:39.665Z,42.11
2022-09-23T12:22:37.254Z,42.11
2022-09-23T12:25:17.714Z,41.54
2022-09-23T12:27:55.147Z,42.04
2022-09-23T12:30:29.781Z,41.55
2022-09-23T12:33:22.521Z,40.82
2022-09-23T12:36:01.880Z,41.15
2022-09-23T12:38:37.125Z,41.07
2022-09-23T12:41:23.961Z,41.39
2022-09-23T12:43:59.846Z,41.61
2022-09-23T12:46:31.219Z,41.62
2022-09-23T12:49:04.123Z,41.48
2022-09-23T12:51:36.642Z,40.80
2022-09-23T12:54:22.329Z,41.58
2022-09-23T12:56:53.553Z,41.72
2022-09-23T12:59:30.862Z,41.17
2022-09-23T13:02:24.696Z,41.05
2022-09-23T13:05:22.043Z,40.74
2022-09-23T13:08:05.223Z,41.45
2022-09-23T13:10:49.418Z,41.57
2022-09-23T13:13:38.467Z,41.22
2022-09-23T13:16:20.925Z,41.84
2022-09-23T13:18:56.386Z,41.76
2022-09-23T13:21:42.688Z,40.67
2022-09-23T13:24:19.279Z,40.69
2022-09-23T13:27:10.783Z,40.45
2022-09-23T13:29:42.242Z,41.31
2022-09-23T13:32:17.783Z,41.83
2022-09-23T13:35:02.020Z,42.20
2022-09-23T13:37:45.457Z,41.66
2022-09-23T13:40:23.859Z,41.49
2022-09-23T13:43:03.158Z,41.61
2022-09-23T13:45:42.938Z,42.20
2022-09-23T13:48:15.529Z,42.74
2022-09-23T13:50:53.243Z,42.92
2022-09-23T13:53:29.751Z,43.29
2022-09-23T13:56:13.353Z,43.05
2022-09-23T13:58:44.625Z,43.08
2022-09-23T14:01:36.028Z,42.96
2022-09-23T14:04:23.158Z,42.88
2022-09-23T14:06:55.310Z,43.35
2022-09-23T14:09:29.228Z,43.15
2022-09-23T14:12:02.016Z,43.43
2022-09-23T14:14:37.048Z,43.63
2022-09-23T14:17:10.119Z,43.94
2022-09-23T14:19:42.352Z,44.18
2022-09-23T14:22:29.983Z,44.05
2022-09-23T14:25:03.268Z,44.14
2022-09-23T14:27:36.364Z,44.56
2022-09-23T14:30:15.538Z,44.81
2022-09-23T14:32:50.007Z,45.25
2022-09-23T14:35:27.463Z,45.37
2022-09-23T14:38:17.427Z,45.58
2022-09-23T14:41:15.696Z,45.45
2022-09-23T14:43:50.633Z,45.59
2022-09-23T14:46:23.836Z,46.26
2022-09-23T14:49:10.341Z,46.47
2022-09-23T14:51:53.820Z,46.20
2022-09-23T14:54:40.159Z,45.92
2022-09-23T14:57:25.928Z,46.07
2022-09-23T15:00:09.243Z,46.93
2022-09-23T15:02:57.229Z,47.22
2022-09-23T15:05:44.278Z,48.20
2022-09-23T15:08:21.828Z,47.98
2022-09-23T15:10:54.079Z,48.40
2022-09-23T15:13:31.846Z,48.51
2022-09-23T15:16:04.692Z,48.50
2022-09-23T15:18:38.185Z,48.63
2022-09-23T15:21:13.443Z,48.88
2022-09-23T15:23:49.021Z,48.41
2022-09-23T15:26:52.370Z,48.76
2022-09-23T15:29:26.063Z,48.77
2022-09-23T15:31:58.298Z,49.56
2022-09-23T15:34:30.831Z,49.12
2022-09-23T15:37:02.439Z,49.39
2022-09-23T15:39:36.286Z,49.56
2022-09-23T15:42:10.123Z,49.37
2022-09-23T15:44:41.424Z,50.02
2022-09-23T15:47:18.623Z,49.96
2022-09-23T15:49:49.931Z,50.72
2022-09-23T15:52:22.628Z,50.37
2022-09-23T15:54:53.920Z,50.52
2022-09-23T15:57:25.940Z,51.01
2022-09-23T15:59:58.431Z,50.94
2022-09-23T16:02:32.331Z,51.46
2022-09-23T16:05:05.746Z,51.28
2022-09-23T16:07:37.056Z,51.31
2022-09-23T16:10:08.397Z,52.08
2022-09-23T16:12:39.945Z,51.99
2022-09-23T16:15:17.830Z,52.02
2022-09-23T16:17:53.175Z,52.01
2022-09-23T16:20:26.214Z,52.38
2022-09-23T16:23:00.411Z,52.89
2022-09-23T16:25:36.425Z,52.96
2022-09-23T16:28:07.783Z,53.19
2022-09-23T16:30:39.037Z,53.32
2022-09-23T16:33:10.305Z,53.54
2022-09-23T16:35:41.568Z,53.62
2022-09-23T16:38:14.557Z,53.58
2022-09-23T16:40:47.315Z,53.78
2022-09-23T16:43:19.492Z,53.80
2022-09-23T16:45:50.843Z,54.42
2022-09-23T16:48:22.790Z,54.42
2022-09-23T16:50:54.043Z,54.87
2022-09-23T16:53:28.924Z,55.24
2022-09-23T16:56:09.435Z,55.93
2022-09-23T16:58:40.877Z,56.17
2022-09-23T17:01:38.665Z,56.36
2022-09-23T17:04:10.982Z,56.54
2022-09-23T17:06:49.972Z,56.97
2022-09-23T17:09:24.547Z,56.92
2022-09-23T17:12:13.695Z,57.89
2022-09-23T17:14:44.958Z,57.51
2022-09-23T17:17:16.250Z,57.74
2022-09-23T17:19:47.529Z,58.01
2022-09-23T17:22:18.871Z,58.70
2022-09-23T17:24:50.213Z,59.02
2022-09-23T17:27:21.533Z,58.55
2022-09-23T17:29:52.823Z,58.65
2022-09-23T17:32:24.502Z,58.97
2022-09-23T17:34:55.750Z,59.13
2022-09-23T17:37:26.997Z,59.59
2022-09-23T17:39:58.986Z,60.29
2022-09-23T17:42:30.608Z,60.45
2022-09-23T17:45:02.102Z,60.59
2022-09-23T17:47:33.635Z,60.94
2022-09-23T17:50:06.001Z,61.23
2022-09-23T17:52:37.253Z,61.49
2022-09-23T17:55:08.847Z,61.49
2022-09-23T17:57:40.278Z,61.63
2022-09-23T18:00:12.269Z,62.07
2022-09-23T18:02:43.552Z,62.69
2022-09-23T18:05:14.893Z,62.51
2022-09-23T18:07:46.145Z,62.20
2022-09-23T18:10:17.386Z,62.85
2022-09-23T18:12:48.733Z,62.40
2022-09-23T18:15:20.233Z,62.47
2022-09-23T18:17:51.565Z,63.55
2022-09-23T18:20:22.843Z,63.30
2022-09-23T18:22:54.125Z,63.24
2022-09-23T18:25:38.537Z,63.01
2022-09-23T18:28:11.135Z,62.99
2022-09-23T18:30:55.250Z,63.36
2022-09-23T18:33:26.637Z,63.48
2022-09-23T18:36:01.403Z,63.45
2022-09-23T18:38:33.142Z,63.83
2022-09-23T18:41:04.670Z,64.15
2022-09-23T18:43:41.314Z,64.16
2022-09-23T18:46:17.265Z,64.87
2022-09-23T18:49:07.970Z,65.17
2022-09-23T18:51:51.727Z,65.60
2022-09-23T18:54:25.158Z,65.63
2022-09-23T18:56:56.695Z,65.92
2022-09-23T18:59:29.689Z,66.06
2022-09-23T19:02:01.168Z,66.37
2022-09-23T19:04:32.784Z,66.63
2022-09-23T19:07:04.105Z,66.60
2022-09-23T19:09:35.427Z,66.71
2022-09-23T19:12:06.674Z,67.20
2022-09-23T19:14:37.951Z,67.72
2022-09-23T19:17:10.981Z,67.42
2022-09-23T19:19:42.262Z,67.81
2022-09-23T19:22:13.669Z,67.75
2022-09-23T19:24:45.286Z,67.72
2022-09-23T19:27:16.558Z,67.95
2022-09-23T19:29:47.957Z,68.45
2022-09-23T19:32:19.272Z,68.57
2022-09-23T19:34:50.509Z,68.75
2022-09-23T19:37:22.422Z,68.97
2022-09-23T19:39:53.751Z,69.46
2022-09-23T19:42:27.555Z,69.36
2022-09-23T19:44:58.802Z,69.09
2022-09-23T19:47:30.187Z,69.61
2022-09-23T19:50:01.512Z,69.68
2022-09-23T19:52:32.767Z,69.96
2022-09-23T19:55:04.504Z,69.77
2022-09-23T19:57:35.754Z,70.24
2022-09-23T20:00:07.896Z,70.33
2022-09-23T20:02:39.165Z,70.39
2022-09-23T20:05:12.144Z,70.49
2022-09-23T20:07:43.495Z,71.12
2022-09-23T20:10:15.328Z,71.28
2022-09-23T20:12:46.632Z,71.13
2022-09-23T20:15:18.530Z,71.04
2022-09-23T20:17:51.177Z,71.38
2022-09-23T20:20:22.409Z,71.92
2022-09-23T20:22:55.042Z,72.08
2022-09-23T20:25:26.299Z,71.84
2022-09-23T20:27:57.553Z,71.84
2022-09-23T20:30:29.259Z,72.33
2022-09-23T20:33:00.981Z,72.17
2022-09-23T20:35:33.064Z,72.62
2022-09-23T20:38:08.005Z,72.84
2022-09-23T20:40:39.581Z,72.35
2022-09-23T20:43:10.953Z,72.66
2022-09-23T20:45:49.911Z,72.74
2022-09-23T20:48:23.539Z,72.78
2022-09-23T20:51:02.031Z,72.90
2022-09-23T20:53:34.925Z,73.27
2022-09-23T20:56:06.310Z,72.92
2022-09-23T20:58:37.668Z,72.96
2022-09-23T21:01:10.602Z,73.54
2022-09-23T21:03:44.964Z,73.69
2022-09-23T21:06:18.762Z,73.48
2022-09-23T21:08:52.566Z,73.49
2022-09-23T21:11:24.305Z,73.28
2022-09-23T21:13:56.466Z,73.71
2022-09-23T21:16:28.053Z,73.39
2022-09-23T21:18:59.599Z,73.89
2022-09-23T21:21:31.025Z,74.10
2022-09-23T21:24:24.509Z,73.80
2022-09-23T21:26:53.629Z,74.38
2022-09-23T21:29:25.043Z,74.33
2022-09-23T21:31:57.171Z,74.25
2022-09-23T21:34:29.929Z,74.31
2022-09-23T21:37:01.881Z,74.54
2022-09-23T21:39:33.240Z,74.56
2022-09-23T21:42:05.514Z,74.46
2022-09-23T21:44:36.761Z,74.81
2022-09-23T21:47:08.050Z,75.19
2022-09-23T21:49:39.342Z,75.08
2022-09-23T21:52:10.601Z,75.04
2022-09-23T21:54:41.971Z,74.92
2022-09-23T21:57:13.818Z,75.23
2022-09-23T21:59:45.055Z,75.58
2022-09-23T22:02:17.200Z,75.60
2022-09-23T22:04:48.478Z,75.15
2022-09-23T22:07:20.056Z,75.44
2022-09-23T22:09:51.346Z,75.10
2022-09-23T22:12:23.375Z,75.48
2022-09-23T22:14:54.701Z,75.61
2022-09-23T22:17:25.957Z,75.62
2022-09-23T22:19:58.369Z,75.70
2022-09-23T22:22:29.621Z,75.77
2022-09-23T22:25:00.887Z,75.95
2022-09-23T22:27:32.133Z,75.93
2022-09-23T22:30:22.162Z,76.10
2022-09-23T22:32:55.273Z,75.98
2022-09-23T22:35:26.736Z,76.02
2022-09-23T22:38:00.395Z,76.12
2022-09-23T22:40:31.715Z,76.20
2022-09-23T22:43:03.059Z,76.22
2022-09-23T22:45:34.809Z,76.19
2022-09-23T22:48:06.049Z,76.69
2022-09-23T22:50:39.590Z,76.56
2022-09-23T22:53:10.956Z,76.68
2022-09-23T22:55:42.638Z,76.60
2022-09-23T22:58:31.144Z,76.44
2022-09-23T23:01:03.716Z,76.42
2022-09-23T23:03:35.462Z,76.69
2022-09-23T23:06:08.266Z,76.43
2022-09-23T23:08:39.945Z,76.34
2022-09-23T23:11:11.614Z,76.46
2022-09-23T23:13:43.352Z,76.49
2022-09-23T23:16:15.439Z,76.17
2022-09-23T23:18:47.590Z,76.19
2022-09-23T23:21:20.197Z,76.29
2022-09-23T23:23:52.825Z,76.13
2022-09-23T23:26:27.081Z,76.30
2022-09-23T23:28:58.970Z,76.20
2022-09-23T23:31:32.006Z,76.13
2022-09-23T23:34:03.654Z,76.12
2022-09-23T23:36:35.012Z,76.14
2022-09-23T23:39:06.336Z,75.97
2022-09-23T23:41:39.416Z,76.00
2022-09-23T23:44:12.297Z,76.11
2022-09-23T23:46:43.613Z,75.99
2022-09-23T23:49:15.241Z,75.85
2022-09-23T23:51:47.730Z,76.30
2022-09-23T23:54:19.006Z,76.30
2022-09-23T23:56:50.354Z,76.38
2022-09-23T23:59:21.774Z,76.47
